createdAt,value
2022-12-23T00:02:01.191Z,5.12
2022-12-23T00:07:03.508Z,5.19
2022-12-23T00:12:05.369Z,5.15
2022-12-23T00:17:22.136Z,5.09
2022-12-23T00:22:26.991Z,5.07
2022-12-23T00:27:32.912Z,5.08
2022-12-23T00:32:40.948Z,5.12
2022-12-23T00:37:42.964Z,5.12
2022-12-23T00:42:45.046Z,5.11
2022-12-23T00:47:48.603Z,5.09
2022-12-23T00:52:50.560Z,5.13
2022-12-23T00:57:53.055Z,5.14
2022-12-23T01:02:56.426Z,5.12
2022-12-23T01:07:58.232Z,5.11
2022-12-23T01:13:00.307Z,5.10
2022-12-23T01:18:03.818Z,5.10
2022-12-23T01:23:05.850Z,5.05
2022-12-23T01:28:07.574Z,5.09
2022-12-23T01:33:11.271Z,5.15
2022-12-23T01:38:13.427Z,5.16
2022-12-23T01:43:16.837Z,5.20
2022-12-23T01:48:23.409Z,5.18
2022-12-23T01:53:28.722Z,5.20
2022-12-23T01:58:33.482Z,5.22
2022-12-23T02:03:37.757Z,5.23
2022-12-23T02:08:39.875Z,5.30
2022-12-23T02:13:50.507Z,5.29
2022-12-23T02:19:08.235Z,5.28
2022-12-23T02:24:43.894Z,5.31
2022-12-23T02:30:06.994Z,5.30
2022-12-23T02:35:15.241Z,5.32
2022-12-23T02:40:28.485Z,5.28
2022-12-23T02:45:36.384Z,5.30
2022-12-23T02:50:43.995Z,5.32
2022-12-23T02:55:48.537Z,5.38
2022-12-23T03:00:51.700Z,5.38
2022-12-23T03:05:55.301Z,5.43
2022-12-23T03:11:04.009Z,5.40
2022-12-23T03:16:14.456Z,5.40
2022-12-23T03:21:22.741Z,5.39
2022-12-23T03:26:30.680Z,5.41
2022-12-23T03:31:34.732Z,5.40
2022-12-23T03:36:42.191Z,5.47
2022-12-23T03:41:48.870Z,5.48
2022-12-23T03:46:55.575Z,5.50
2022-12-23T03:52:03.838Z,5.53
2022-12-23T03:57:08.893Z,5.60
2022-12-23T04:02:16.849Z,5.57
2022-12-23T04:07:24.212Z,5.58
2022-12-23T04:12:27.563Z,5.58
2022-12-23T04:17:29.741Z,5.59
2022-12-23T04:22:33.197Z,5.63
2022-12-23T04:27:35.257Z,5.67
2022-12-23T04:32:37.549Z,5.63
2022-12-23T04:37:41.284Z,5.64
2022-12-23T04:42:43.273Z,5.66
2022-12-23T04:47:45.271Z,5.65
2022-12-23T04:52:48.685Z,5.62
2022-12-23T04:57:50.772Z,5.70
2022-12-23T05:02:52.864Z,5.68
2022-12-23T05:08:02.906Z,5.70
2022-12-23T05:13:04.879Z,5.69
2022-12-23T05:18:06.824Z,5.74
2022-12-23T05:23:10.762Z,5.79
2022-12-23T05:28:12.901Z,5.96
2022-12-23T05:33:15.620Z,6.02
2022-12-23T05:38:19.339Z,6.10
2022-12-23T05:43:22.031Z,6.13
2022-12-23T05:48:24.122Z,6.26
2022-12-23T05:53:27.569Z,6.34
2022-12-23T05:58:29.707Z,6.35
2022-12-23T06:03:32.055Z,6.41
2022-12-23T06:08:35.661Z,6.46
2022-12-23T06:13:37.832Z,6.49
2022-12-23T06:18:40.141Z,6.64
2022-12-23T06:23:43.699Z,6.72
2022-12-23T06:28:45.824Z,6.87
2022-12-23T06:33:47.546Z,7.06
2022-12-23T06:38:51.686Z,7.16
2022-12-23T06:43:54.618Z,7.33
2022-12-23T06:48:56.965Z,7.36
2022-12-23T06:54:00.946Z,7.44
2022-12-23T06:59:03.041Z,7.44
2022-12-23T07:04:05.018Z,7.50
2022-12-23T07:09:08.456Z,7.45
2022-12-23T07:14:10.597Z,7.51
2022-12-23T07:19:12.355Z,7.49
2022-12-23T07:24:15.408Z,7.50
2022-12-23T07:29:17.465Z,7.52
2022-12-23T07:34:19.453Z,7.50
2022-12-23T07:39:23.051Z,7.50
2022-12-23T07:44:25.217Z,7.47
2022-12-23T07:49:27.184Z,7.52
2022-12-23T07:54:30.272Z,7.59
2022-12-23T07:59:32.067Z,7.45
2022-12-23T08:04:34.243Z,7.42
2022-12-23T08:09:37.427Z,7.40
2022-12-23T08:14:39.369Z,7.45
2022-12-23T08:19:41.093Z,7.48
2022-12-23T08:24:44.623Z,7.43
2022-12-23T08:29:46.465Z,7.38
2022-12-23T08:34:48.482Z,7.34
2022-12-23T08:39:51.847Z,7.27
2022-12-23T08:44:55.399Z,7.32
2022-12-23T08:49:57.471Z,7.22
2022-12-23T08:55:00.857Z,7.26
2022-12-23T09:00:03.512Z,7.25
2022-12-23T09:05:05.485Z,7.36
2022-12-23T09:10:09.239Z,7.22
2022-12-23T09:15:11.747Z,7.25
2022-12-23T09:20:13.832Z,7.31
2022-12-23T09:25:17.111Z,7.29
2022-12-23T09:30:19.428Z,7.37
2022-12-23T09:35:21.259Z,7.24
2022-12-23T09:40:24.733Z,7.50
2022-12-23T09:45:45.047Z,7.30
2022-12-23T09:50:47.170Z,7.34
2022-12-23T09:55:57.719Z,7.27
2022-12-23T10:01:16.907Z,7.16
2022-12-23T10:06:25.055Z,7.22
2022-12-23T10:11:31.245Z,7.05
2022-12-23T10:16:38.925Z,7.06
2022-12-23T10:21:47.455Z,7.12
2022-12-23T10:26:53.779Z,7.06
2022-12-23T10:32:06.262Z,7.07
2022-12-23T10:37:15.200Z,7.13
2022-12-23T10:42:28.517Z,7.24
2022-12-23T10:47:41.424Z,7.27
2022-12-23T10:52:47.212Z,7.07
2022-12-23T10:57:52.750Z,7.26
2022-12-23T11:03:06.779Z,7.70
2022-12-23T11:08:09.849Z,7.59
2022-12-23T11:13:23.508Z,7.40
2022-12-23T11:18:25.381Z,7.41
2022-12-23T11:23:29.433Z,7.41
2022-12-23T11:28:35.797Z,7.22
2022-12-23T11:33:39.899Z,7.16
2022-12-23T11:38:49.624Z,7.11
2022-12-23T11:43:57.335Z,7.27
2022-12-23T11:49:16.204Z,7.15
2022-12-23T11:54:20.353Z,7.14
2022-12-23T11:59:31.366Z,7.25
2022-12-23T12:04:36.184Z,7.18
2022-12-23T12:09:40.954Z,7.16
2022-12-23T12:14:47.303Z,7.37
2022-12-23T12:19:59.500Z,7.35
2022-12-23T12:25:12.105Z,7.22
2022-12-23T12:30:18.301Z,7.29
2022-12-23T12:35:25.640Z,7.47
2022-12-23T12:40:32.699Z,7.40
2022-12-23T12:45:42.319Z,7.56
2022-12-23T12:50:54.369Z,7.65
2022-12-23T12:56:02.869Z,7.48
2022-12-23T13:01:22.456Z,7.37
2022-12-23T13:06:35.118Z,7.28
2022-12-23T13:11:42.270Z,7.26
2022-12-23T13:16:52.614Z,7.31
2022-12-23T13:22:01.803Z,7.18
2022-12-23T13:27:11.377Z,6.98
2022-12-23T13:32:25.275Z,7.25
2022-12-23T13:37:36.502Z,7.21
2022-12-23T13:42:44.199Z,7.10
2022-12-23T13:48:04.375Z,7.15
2022-12-23T13:53:16.680Z,7.26
2022-12-23T13:58:21.438Z,7.14
2022-12-23T14:03:26.333Z,7.03
2022-12-23T14:08:40.779Z,7.05
2022-12-23T14:13:46.235Z,6.95
2022-12-23T14:19:10.887Z,6.96
2022-12-23T14:24:31.754Z,6.85
2022-12-23T14:29:48.932Z,6.79
2022-12-23T14:35:23.643Z,6.83
2022-12-23T14:40:48.661Z,6.79
2022-12-23T14:45:52.754Z,6.68
2022-12-23T14:50:59.843Z,6.63
2022-12-23T14:56:20.827Z,6.59
2022-12-23T15:01:31.505Z,6.63
2022-12-23T15:06:37.966Z,6.61
2022-12-23T15:11:40.492Z,6.58
2022-12-23T15:16:43.627Z,6.56
2022-12-23T15:21:53.731Z,6.51
2022-12-23T15:32:24.328Z,6.45
2022-12-23T15:37:29.332Z,6.46
2022-12-23T15:42:31.754Z,6.42
2022-12-23T15:47:38.376Z,6.39
2022-12-23T15:52:45.026Z,6.36
2022-12-23T15:57:50.825Z,6.30
2022-12-23T16:03:00.914Z,6.18
2022-12-23T16:08:29.134Z,6.10
2022-12-23T16:13:33.658Z,6.03
2022-12-23T16:18:46.967Z,5.98
2022-12-23T16:23:53.140Z,5.97
2022-12-23T16:28:59.235Z,6.00
2022-12-23T16:34:06.780Z,6.02
2022-12-23T16:39:18.968Z,6.26
2022-12-23T16:44:21.188Z,6.07
2022-12-23T16:49:27.957Z,6.18
2022-12-23T16:54:33.320Z,6.00
2022-12-23T16:59:35.510Z,5.93
2022-12-23T17:04:37.584Z,6.03
2022-12-23T17:09:41.297Z,6.05
2022-12-23T17:14:43.602Z,5.98
2022-12-23T17:19:45.462Z,5.98
2022-12-23T17:24:49.003Z,5.93
2022-12-23T17:29:51.190Z,5.84
2022-12-23T17:34:53.216Z,6.06
2022-12-23T17:39:57.137Z,6.17
2022-12-23T17:44:59.279Z,5.99
2022-12-23T17:50:00.989Z,6.03
2022-12-23T17:55:06.510Z,6.00
2022-12-23T18:00:09.608Z,5.99
2022-12-23T18:05:23.561Z,5.87
2022-12-23T18:10:29.397Z,5.77
2022-12-23T18:15:34.419Z,5.74
2022-12-23T18:20:36.287Z,5.74
2022-12-23T18:25:39.758Z,5.73
2022-12-23T18:30:42.087Z,5.74
2022-12-23T18:35:46.564Z,5.93
2022-12-23T18:40:49.688Z,5.94
2022-12-23T18:45:53.852Z,6.00
2022-12-23T18:50:56.429Z,5.79
2022-12-23T18:55:59.854Z,5.82
2022-12-23T19:01:02.038Z,5.76
2022-12-23T19:06:06.733Z,5.72
2022-12-23T19:11:15.727Z,5.85
2022-12-23T19:16:21.214Z,5.77
2022-12-23T19:21:23.129Z,5.75
2022-12-23T19:26:26.481Z,5.81
2022-12-23T19:31:28.862Z,5.77
2022-12-23T19:36:31.071Z,5.79
2022-12-23T19:41:34.666Z,5.82
2022-12-23T19:46:36.385Z,5.83
2022-12-23T19:51:38.731Z,5.81
2022-12-23T19:56:42.687Z,5.79
2022-12-23T20:01:45.344Z,5.84
2022-12-23T20:06:47.306Z,5.81
2022-12-23T20:11:50.930Z,5.84
2022-12-23T20:16:53.172Z,5.81
2022-12-23T20:21:55.366Z,5.76
2022-12-23T20:26:58.705Z,5.67
2022-12-23T20:32:00.616Z,5.72
2022-12-23T20:37:02.386Z,5.70
2022-12-23T20:42:06.122Z,5.64
2022-12-23T20:47:08.171Z,5.60
2022-12-23T20:52:10.031Z,5.64
2022-12-23T20:57:13.697Z,5.64
2022-12-23T21:02:16.277Z,5.69
2022-12-23T21:07:18.647Z,5.65
2022-12-23T21:12:22.588Z,5.67
2022-12-23T21:17:24.629Z,5.68
2022-12-23T21:22:26.706Z,5.56
2022-12-23T21:27:30.163Z,5.64
2022-12-23T21:32:31.871Z,5.77
2022-12-23T21:37:33.893Z,5.68
2022-12-23T21:42:37.349Z,5.73
2022-12-23T21:47:39.345Z,5.74
2022-12-23T21:52:41.605Z,5.74
2022-12-23T21:57:45.310Z,5.70
2022-12-23T22:02:47.692Z,5.71
2022-12-23T22:07:49.655Z,5.64
2022-12-23T22:12:53.064Z,5.72
2022-12-23T22:17:55.151Z,5.72
2022-12-23T22:22:57.187Z,5.74
2022-12-23T22:28:00.683Z,5.68
2022-12-23T22:33:02.778Z,5.74
2022-12-23T22:38:04.899Z,5.68
2022-12-23T22:43:08.625Z,5.75
2022-12-23T22:48:10.609Z,5.73
2022-12-23T22:53:14.502Z,5.69
2022-12-23T22:58:17.972Z,5.69
2022-12-23T23:03:20.674Z,5.74
2022-12-23T23:08:23.535Z,5.65
2022-12-23T23:13:28.814Z,5.70
2022-12-23T23:18:31.102Z,5.65
2022-12-23T23:23:33.216Z,5.69
2022-12-23T23:28:37.027Z,5.69
2022-12-23T23:33:39.145Z,5.65
2022-12-23T23:38:41.123Z,5.59
2022-12-23T23:43:44.642Z,5.60
2022-12-23T23:48:47.750Z,5.56
2022-12-23T23:53:49.756Z,5.63
2022-12-23T23:58:53.572Z,5.60
